sensor_id;sensor_type;location;lat;lon;timestamp;P1;durP1;ratioP1;P2;durP2;ratioP2
19535;SDS011;9913;51.168;4.124;2024-01-30T00:01:53;10.20;;;7.33;;
19535;SDS011;9913;51.168;4.124;2024-01-30T00:04:23;11.17;;;8.67;;
19535;SDS011;9913;51.168;4.124;2024-01-30T00:06:51;13.23;;;8.93;;
19535;SDS011;9913;51.168;4.124;2024-01-30T00:09:20;12.53;;;9.17;;
19535;SDS011;9913;51.168;4.124;2024-01-30T00:11:49;10.60;;;7.67;;
19535;SDS011;9913;51.168;4.124;2024-01-30T00:14:17;10.20;;;7.83;;
19535;SDS011;9913;51.168;4.124;2024-01-30T00:16:46;11.10;;;8.80;;
19535;SDS011;9913;51.168;4.124;2024-01-30T00:19:14;12.73;;;8.80;;
19535;SDS011;9913;51.168;4.124;2024-01-30T00:21:44;10.27;;;7.87;;
19535;SDS011;9913;51.168;4.124;2024-01-30T00:24:13;8.90;;;7.37;;
19535;SDS011;9913;51.168;4.124;2024-01-30T00:26:41;11.43;;;8.50;;
19535;SDS011;9913;51.168;4.124;2024-01-30T00:29:10;10.93;;;8.20;;
19535;SDS011;9913;51.168;4.124;2024-01-30T00:31:38;12.33;;;8.90;;
19535;SDS011;9913;51.168;4.124;2024-01-30T00:34:08;9.50;;;7.73;;
19535;SDS011;9913;51.168;4.124;2024-01-30T00:36:36;13.23;;;8.50;;
19535;SDS011;9913;51.168;4.124;2024-01-30T00:39:06;10.93;;;7.83;;
19535;SDS011;9913;51.168;4.124;2024-01-30T00:41:36;11.13;;;8.50;;
19535;SDS011;9913;51.168;4.124;2024-01-30T00:44:04;11.63;;;8.40;;
19535;SDS011;9913;51.168;4.124;2024-01-30T00:46:33;13.67;;;9.23;;
19535;SDS011;9913;51.168;4.124;2024-01-30T00:49:01;12.63;;;8.63;;
19535;SDS011;9913;51.168;4.124;2024-01-30T00:51:30;10.23;;;8.03;;
19535;SDS011;9913;51.168;4.124;2024-01-30T00:53:58;10.87;;;8.23;;
19535;SDS011;9913;51.168;4.124;2024-01-30T00:56:28;13.37;;;8.60;;
19535;SDS011;9913;51.168;4.124;2024-01-30T00:58:57;11.17;;;8.30;;
19535;SDS011;9913;51.168;4.124;2024-01-30T01:01:26;12.87;;;8.20;;
19535;SDS011;9913;51.168;4.124;2024-01-30T01:03:55;12.33;;;8.17;;
19535;SDS011;9913;51.168;4.124;2024-01-30T01:06:24;13.07;;;8.23;;
19535;SDS011;9913;51.168;4.124;2024-01-30T01:08:53;10.27;;;7.93;;
19535;SDS011;9913;51.168;4.124;2024-01-30T01:11:21;10.97;;;7.90;;
19535;SDS011;9913;51.168;4.124;2024-01-30T01:13:51;10.20;;;7.93;;
19535;SDS011;9913;51.168;4.124;2024-01-30T01:16:19;12.90;;;8.60;;
19535;SDS011;9913;51.168;4.124;2024-01-30T01:18:48;9.30;;;8.30;;
19535;SDS011;9913;51.168;4.124;2024-01-30T01:21:17;11.07;;;8.63;;
19535;SDS011;9913;51.168;4.124;2024-01-30T01:23:45;11.57;;;8.83;;
19535;SDS011;9913;51.168;4.124;2024-01-30T01:26:13;10.70;;;7.53;;
19535;SDS011;9913;51.168;4.124;2024-01-30T01:28:42;10.03;;;7.47;;
19535;SDS011;9913;51.168;4.124;2024-01-30T01:31:12;10.13;;;8.03;;
19535;SDS011;9913;51.168;4.124;2024-01-30T01:33:40;10.07;;;7.27;;
19535;SDS011;9913;51.168;4.124;2024-01-30T01:36:09;9.50;;;7.10;;
19535;SDS011;9913;51.168;4.124;2024-01-30T01:38:38;10.37;;;7.83;;
19535;SDS011;9913;51.168;4.124;2024-01-30T01:41:06;11.73;;;8.50;;
19535;SDS011;9913;51.168;4.124;2024-01-30T01:43:35;10.67;;;7.80;;
19535;SDS011;9913;51.168;4.124;2024-01-30T01:46:04;13.03;;;8.20;;
19535;SDS011;9913;51.168;4.124;2024-01-30T01:48:35;11.70;;;8.57;;
19535;SDS011;9913;51.168;4.124;2024-01-30T01:51:06;11.33;;;8.53;;
19535;SDS011;9913;51.168;4.124;2024-01-30T01:53:35;10.63;;;7.57;;
19535;SDS011;9913;51.168;4.124;2024-01-30T01:56:04;12.23;;;8.60;;
19535;SDS011;9913;51.168;4.124;2024-01-30T01:58:33;12.67;;;8.40;;
19535;SDS011;9913;51.168;4.124;2024-01-30T02:01:02;9.70;;;8.03;;
19535;SDS011;9913;51.168;4.124;2024-01-30T02:03:32;11.33;;;8.10;;
19535;SDS011;9913;51.168;4.124;2024-01-30T02:06:04;9.43;;;7.97;;
19535;SDS011;9913;51.168;4.124;2024-01-30T02:08:32;11.63;;;8.83;;
19535;SDS011;9913;51.168;4.124;2024-01-30T02:11:01;10.87;;;8.00;;
19535;SDS011;9913;51.168;4.124;2024-01-30T02:13:29;10.53;;;8.03;;
19535;SDS011;9913;51.168;4.124;2024-01-30T02:15:58;10.23;;;7.37;;
19535;SDS011;9913;51.168;4.124;2024-01-30T02:18:26;10.53;;;7.00;;
19535;SDS011;9913;51.168;4.124;2024-01-30T02:21:16;11.27;;;8.30;;
19535;SDS011;9913;51.168;4.124;2024-01-30T02:23:45;13.13;;;8.40;;
19535;SDS011;9913;51.168;4.124;2024-01-30T02:26:16;11.87;;;7.63;;
19535;SDS011;9913;51.168;4.124;2024-01-30T02:28:44;10.83;;;8.33;;
19535;SDS011;9913;51.168;4.124;2024-01-30T02:31:12;9.93;;;7.23;;
19535;SDS011;9913;51.168;4.124;2024-01-30T02:33:41;10.07;;;7.23;;
19535;SDS011;9913;51.168;4.124;2024-01-30T02:36:09;9.90;;;7.13;;
19535;SDS011;9913;51.168;4.124;2024-01-30T02:38:39;10.53;;;8.03;;
19535;SDS011;9913;51.168;4.124;2024-01-30T02:41:07;10.97;;;7.93;;
19535;SDS011;9913;51.168;4.124;2024-01-30T02:43:35;9.47;;;7.53;;
19535;SDS011;9913;51.168;4.124;2024-01-30T02:46:03;8.20;;;6.33;;
19535;SDS011;9913;51.168;4.124;2024-01-30T02:48:32;11.03;;;7.40;;
19535;SDS011;9913;51.168;4.124;2024-01-30T02:51:00;8.90;;;7.50;;
19535;SDS011;9913;51.168;4.124;2024-01-30T02:53:29;12.83;;;7.90;;
19535;SDS011;9913;51.168;4.124;2024-01-30T02:55:58;11.70;;;7.30;;
19535;SDS011;9913;51.168;4.124;2024-01-30T02:58:27;11.37;;;8.00;;
19535;SDS011;9913;51.168;4.124;2024-01-30T03:00:55;9.37;;;7.00;;
19535;SDS011;9913;51.168;4.124;2024-01-30T03:03:24;11.20;;;7.43;;
19535;SDS011;9913;51.168;4.124;2024-01-30T03:05:52;10.67;;;7.00;;
19535;SDS011;9913;51.168;4.124;2024-01-30T03:08:20;9.93;;;7.30;;
19535;SDS011;9913;51.168;4.124;2024-01-30T03:10:49;9.87;;;7.20;;
19535;SDS011;9913;51.168;4.124;2024-01-30T03:13:19;8.20;;;6.77;;
19535;SDS011;9913;51.168;4.124;2024-01-30T03:15:47;12.10;;;7.03;;
19535;SDS011;9913;51.168;4.124;2024-01-30T03:18:15;9.60;;;7.37;;
19535;SDS011;9913;51.168;4.124;2024-01-30T03:20:44;10.73;;;7.50;;
19535;SDS011;9913;51.168;4.124;2024-01-30T03:23:13;9.13;;;6.90;;
19535;SDS011;9913;51.168;4.124;2024-01-30T03:25:41;9.40;;;7.00;;
19535;SDS011;9913;51.168;4.124;2024-01-30T03:28:09;9.10;;;6.70;;
19535;SDS011;9913;51.168;4.124;2024-01-30T03:30:39;10.20;;;7.23;;
19535;SDS011;9913;51.168;4.124;2024-01-30T03:33:07;10.33;;;7.13;;
19535;SDS011;9913;51.168;4.124;2024-01-30T03:35:35;11.30;;;7.20;;
19535;SDS011;9913;51.168;4.124;2024-01-30T03:38:04;11.27;;;7.33;;
19535;SDS011;9913;51.168;4.124;2024-01-30T03:40:32;8.40;;;6.23;;
19535;SDS011;9913;51.168;4.124;2024-01-30T03:43:00;9.00;;;6.63;;
19535;SDS011;9913;51.168;4.124;2024-01-30T03:45:29;10.33;;;7.27;;
19535;SDS011;9913;51.168;4.124;2024-01-30T03:47:59;11.57;;;7.63;;
19535;SDS011;9913;51.168;4.124;2024-01-30T03:50:27;7.23;;;6.30;;
19535;SDS011;9913;51.168;4.124;2024-01-30T03:52:55;12.77;;;7.27;;
19535;SDS011;9913;51.168;4.124;2024-01-30T03:55:24;9.90;;;7.47;;
19535;SDS011;9913;51.168;4.124;2024-01-30T03:57:52;10.13;;;7.10;;
19535;SDS011;9913;51.168;4.124;2024-01-30T04:00:20;9.20;;;7.33;;
19535;SDS011;9913;51.168;4.124;2024-01-30T04:02:48;11.63;;;8.17;;
19535;SDS011;9913;51.168;4.124;2024-01-30T04:05:19;9.90;;;7.03;;
19535;SDS011;9913;51.168;4.124;2024-01-30T04:07:47;12.03;;;8.20;;
19535;SDS011;9913;51.168;4.124;2024-01-30T04:10:16;9.47;;;7.37;;
19535;SDS011;9913;51.168;4.124;2024-01-30T04:12:44;8.27;;;7.07;;
19535;SDS011;9913;51.168;4.124;2024-01-30T04:15:12;9.20;;;7.57;;
19535;SDS011;9913;51.168;4.124;2024-01-30T04:17:41;10.30;;;7.20;;
19535;SDS011;9913;51.168;4.124;2024-01-30T04:20:12;9.47;;;6.93;;
19535;SDS011;9913;51.168;4.124;2024-01-30T04:22:44;11.53;;;8.00;;
19535;SDS011;9913;51.168;4.124;2024-01-30T04:25:12;11.23;;;7.73;;
19535;SDS011;9913;51.168;4.124;2024-01-30T04:27:41;8.70;;;6.97;;
19535;SDS011;9913;51.168;4.124;2024-01-30T04:30:10;11.30;;;6.67;;
19535;SDS011;9913;51.168;4.124;2024-01-30T04:32:38;11.83;;;8.30;;
19535;SDS011;9913;51.168;4.124;2024-01-30T04:35:07;10.93;;;7.90;;
19535;SDS011;9913;51.168;4.124;2024-01-30T04:37:38;10.27;;;7.60;;
19535;SDS011;9913;51.168;4.124;2024-01-30T04:40:08;13.63;;;7.17;;
19535;SDS011;9913;51.168;4.124;2024-01-30T04:42:37;9.07;;;6.77;;
19535;SDS011;9913;51.168;4.124;2024-01-30T04:45:05;9.90;;;7.13;;
19535;SDS011;9913;51.168;4.124;2024-01-30T04:47:34;10.63;;;7.57;;
19535;SDS011;9913;51.168;4.124;2024-01-30T04:50:02;10.13;;;7.77;;
19535;SDS011;9913;51.168;4.124;2024-01-30T04:52:32;9.97;;;6.70;;
19535;SDS011;9913;51.168;4.124;2024-01-30T04:55:00;11.77;;;8.30;;
19535;SDS011;9913;51.168;4.124;2024-01-30T04:57:31;9.73;;;7.67;;
19535;SDS011;9913;51.168;4.124;2024-01-30T05:00:00;9.50;;;6.87;;
19535;SDS011;9913;51.168;4.124;2024-01-30T05:02:29;9.13;;;7.23;;
19535;SDS011;9913;51.168;4.124;2024-01-30T05:04:57;9.30;;;7.10;;
19535;SDS011;9913;51.168;4.124;2024-01-30T05:07:26;9.90;;;7.37;;
19535;SDS011;9913;51.168;4.124;2024-01-30T05:09:54;11.07;;;7.73;;
19535;SDS011;9913;51.168;4.124;2024-01-30T05:12:26;10.27;;;7.73;;
19535;SDS011;9913;51.168;4.124;2024-01-30T05:14:55;10.03;;;7.33;;
19535;SDS011;9913;51.168;4.124;2024-01-30T05:17:24;9.77;;;6.73;;
19535;SDS011;9913;51.168;4.124;2024-01-30T05:19:52;9.60;;;6.70;;
19535;SDS011;9913;51.168;4.124;2024-01-30T05:22:20;9.27;;;7.07;;
19535;SDS011;9913;51.168;4.124;2024-01-30T05:24:49;10.17;;;7.63;;
19535;SDS011;9913;51.168;4.124;2024-01-30T05:27:17;10.33;;;7.13;;
19535;SDS011;9913;51.168;4.124;2024-01-30T05:29:45;9.33;;;7.37;;
19535;SDS011;9913;51.168;4.124;2024-01-30T05:32:15;9.87;;;7.37;;
19535;SDS011;9913;51.168;4.124;2024-01-30T05:34:44;12.17;;;7.53;;
19535;SDS011;9913;51.168;4.124;2024-01-30T05:37:12;12.23;;;7.40;;
19535;SDS011;9913;51.168;4.124;2024-01-30T05:39:43;10.40;;;7.90;;
19535;SDS011;9913;51.168;4.124;2024-01-30T05:42:12;11.47;;;7.33;;
19535;SDS011;9913;51.168;4.124;2024-01-30T05:44:41;10.87;;;7.73;;
19535;SDS011;9913;51.168;4.124;2024-01-30T05:47:09;11.57;;;8.10;;
19535;SDS011;9913;51.168;4.124;2024-01-30T05:49:39;12.43;;;8.27;;
19535;SDS011;9913;51.168;4.124;2024-01-30T05:52:07;12.63;;;7.90;;
19535;SDS011;9913;51.168;4.124;2024-01-30T05:54:36;10.67;;;7.53;;
19535;SDS011;9913;51.168;4.124;2024-01-30T05:57:05;9.40;;;7.43;;
19535;SDS011;9913;51.168;4.124;2024-01-30T05:59:33;12.10;;;8.17;;
19535;SDS011;9913;51.168;4.124;2024-01-30T06:02:07;11.57;;;7.80;;
19535;SDS011;9913;51.168;4.124;2024-01-30T06:04:35;12.37;;;8.03;;
19535;SDS011;9913;51.168;4.124;2024-01-30T06:07:05;10.03;;;7.17;;
19535;SDS011;9913;51.168;4.124;2024-01-30T06:09:34;10.87;;;7.57;;
19535;SDS011;9913;51.168;4.124;2024-01-30T06:12:03;9.80;;;7.80;;
19535;SDS011;9913;51.168;4.124;2024-01-30T06:14:32;9.77;;;7.13;;
19535;SDS011;9913;51.168;4.124;2024-01-30T06:17:01;10.80;;;7.93;;
19535;SDS011;9913;51.168;4.124;2024-01-30T06:19:29;10.57;;;7.03;;
19535;SDS011;9913;51.168;4.124;2024-01-30T06:21:57;9.37;;;7.53;;
19535;SDS011;9913;51.168;4.124;2024-01-30T06:24:27;9.90;;;6.30;;
19535;SDS011;9913;51.168;4.124;2024-01-30T06:26:55;9.20;;;7.30;;
19535;SDS011;9913;51.168;4.124;2024-01-30T06:29:24;11.67;;;7.37;;
19535;SDS011;9913;51.168;4.124;2024-01-30T06:31:53;10.77;;;7.27;;
19535;SDS011;9913;51.168;4.124;2024-01-30T06:34:21;10.67;;;7.50;;
19535;SDS011;9913;51.168;4.124;2024-01-30T06:36:50;10.17;;;7.60;;
19535;SDS011;9913;51.168;4.124;2024-01-30T06:39:18;10.33;;;6.83;;
19535;SDS011;9913;51.168;4.124;2024-01-30T06:41:48;10.27;;;7.17;;
19535;SDS011;9913;51.168;4.124;2024-01-30T06:44:16;9.27;;;7.17;;
19535;SDS011;9913;51.168;4.124;2024-01-30T06:46:44;11.90;;;8.50;;
19535;SDS011;9913;51.168;4.124;2024-01-30T06:49:13;10.27;;;6.87;;
19535;SDS011;9913;51.168;4.124;2024-01-30T06:51:41;14.33;;;8.47;;
19535;SDS011;9913;51.168;4.124;2024-01-30T06:54:09;10.53;;;7.50;;
19535;SDS011;9913;51.168;4.124;2024-01-30T06:56:38;9.47;;;7.27;;
19535;SDS011;9913;51.168;4.124;2024-01-30T06:59:07;12.23;;;7.90;;
19535;SDS011;9913;51.168;4.124;2024-01-30T07:01:36;13.67;;;7.70;;
19535;SDS011;9913;51.168;4.124;2024-01-30T07:04:04;9.93;;;7.53;;
19535;SDS011;9913;51.168;4.124;2024-01-30T07:06:33;10.50;;;7.43;;
19535;SDS011;9913;51.168;4.124;2024-01-30T07:09:01;10.50;;;8.00;;
19535;SDS011;9913;51.168;4.124;2024-01-30T07:11:30;10.13;;;8.03;;
19535;SDS011;9913;51.168;4.124;2024-01-30T07:13:58;12.37;;;7.50;;
19535;SDS011;9913;51.168;4.124;2024-01-30T07:16:31;11.60;;;8.63;;
19535;SDS011;9913;51.168;4.124;2024-01-30T07:19:00;10.13;;;7.10;;
19535;SDS011;9913;51.168;4.124;2024-01-30T07:21:29;10.67;;;7.40;;
19535;SDS011;9913;51.168;4.124;2024-01-30T07:23:57;10.67;;;7.00;;
19535;SDS011;9913;51.168;4.124;2024-01-30T07:26:25;9.97;;;7.03;;
19535;SDS011;9913;51.168;4.124;2024-01-30T07:28:56;10.00;;;7.90;;
19535;SDS011;9913;51.168;4.124;2024-01-30T07:31:24;13.77;;;8.50;;
19535;SDS011;9913;51.168;4.124;2024-01-30T07:33:56;11.77;;;8.23;;
19535;SDS011;9913;51.168;4.124;2024-01-30T07:36:24;13.07;;;8.37;;
19535;SDS011;9913;51.168;4.124;2024-01-30T07:38:53;12.43;;;8.40;;
19535;SDS011;9913;51.168;4.124;2024-01-30T07:41:22;10.50;;;8.00;;
19535;SDS011;9913;51.168;4.124;2024-01-30T07:43:51;13.67;;;8.63;;
19535;SDS011;9913;51.168;4.124;2024-01-30T07:46:20;10.77;;;7.90;;
19535;SDS011;9913;51.168;4.124;2024-01-30T07:48:48;14.13;;;8.53;;
19535;SDS011;9913;51.168;4.124;2024-01-30T07:51:21;11.03;;;7.93;;
19535;SDS011;9913;51.168;4.124;2024-01-30T07:53:53;11.57;;;7.33;;
19535;SDS011;9913;51.168;4.124;2024-01-30T07:56:24;11.47;;;7.40;;
19535;SDS011;9913;51.168;4.124;2024-01-30T07:58:53;11.17;;;7.53;;
19535;SDS011;9913;51.168;4.124;2024-01-30T08:01:21;11.20;;;8.37;;
19535;SDS011;9913;51.168;4.124;2024-01-30T08:03:50;10.73;;;7.80;;
19535;SDS011;9913;51.168;4.124;2024-01-30T08:06:18;14.90;;;8.30;;
19535;SDS011;9913;51.168;4.124;2024-01-30T08:08:48;11.47;;;8.93;;
19535;SDS011;9913;51.168;4.124;2024-01-30T08:11:19;11.03;;;8.37;;
19535;SDS011;9913;51.168;4.124;2024-01-30T08:13:52;11.50;;;7.90;;
19535;SDS011;9913;51.168;4.124;2024-01-30T08:16:20;12.33;;;8.07;;
19535;SDS011;9913;51.168;4.124;2024-01-30T08:18:49;10.40;;;7.80;;
19535;SDS011;9913;51.168;4.124;2024-01-30T08:21:17;11.10;;;7.73;;
19535;SDS011;9913;51.168;4.124;2024-01-30T08:23:46;10.70;;;7.33;;
19535;SDS011;9913;51.168;4.124;2024-01-30T08:26:15;10.13;;;7.50;;
19535;SDS011;9913;51.168;4.124;2024-01-30T08:28:44;11.83;;;7.60;;
19535;SDS011;9913;51.168;4.124;2024-01-30T08:31:12;17.73;;;8.10;;
19535;SDS011;9913;51.168;4.124;2024-01-30T08:33:41;9.63;;;7.37;;
19535;SDS011;9913;51.168;4.124;2024-01-30T08:36:11;12.37;;;8.40;;
19535;SDS011;9913;51.168;4.124;2024-01-30T08:38:40;14.47;;;8.43;;
19535;SDS011;9913;51.168;4.124;2024-01-30T08:41:08;12.00;;;7.70;;
19535;SDS011;9913;51.168;4.124;2024-01-30T08:43:38;10.90;;;7.70;;
19535;SDS011;9913;51.168;4.124;2024-01-30T08:46:06;10.70;;;7.57;;
19535;SDS011;9913;51.168;4.124;2024-01-30T08:48:36;12.93;;;8.97;;
19535;SDS011;9913;51.168;4.124;2024-01-30T08:51:04;12.10;;;7.87;;
19535;SDS011;9913;51.168;4.124;2024-01-30T08:53:35;10.50;;;7.23;;
19535;SDS011;9913;51.168;4.124;2024-01-30T08:56:03;13.63;;;8.77;;
19535;SDS011;9913;51.168;4.124;2024-01-30T08:58:33;10.70;;;7.40;;
19535;SDS011;9913;51.168;4.124;2024-01-30T09:01:03;13.63;;;8.40;;
19535;SDS011;9913;51.168;4.124;2024-01-30T09:03:32;12.33;;;8.37;;
19535;SDS011;9913;51.168;4.124;2024-01-30T09:06:01;12.63;;;8.40;;
19535;SDS011;9913;51.168;4.124;2024-01-30T09:08:29;14.60;;;9.40;;
19535;SDS011;9913;51.168;4.124;2024-01-30T09:10:57;14.13;;;9.47;;
19535;SDS011;9913;51.168;4.124;2024-01-30T09:13:26;12.97;;;8.53;;
19535;SDS011;9913;51.168;4.124;2024-01-30T09:15:54;13.57;;;9.10;;
19535;SDS011;9913;51.168;4.124;2024-01-30T09:18:24;14.83;;;9.20;;
19535;SDS011;9913;51.168;4.124;2024-01-30T09:20:52;11.83;;;9.17;;
19535;SDS011;9913;51.168;4.124;2024-01-30T09:23:21;15.23;;;9.07;;
19535;SDS011;9913;51.168;4.124;2024-01-30T09:25:49;13.07;;;8.73;;
19535;SDS011;9913;51.168;4.124;2024-01-30T09:28:17;12.63;;;8.83;;
19535;SDS011;9913;51.168;4.124;2024-01-30T09:30:46;14.43;;;8.30;;
19535;SDS011;9913;51.168;4.124;2024-01-30T09:33:14;11.93;;;8.40;;
19535;SDS011;9913;51.168;4.124;2024-01-30T09:35:44;13.80;;;8.87;;
19535;SDS011;9913;51.168;4.124;2024-01-30T09:38:13;13.53;;;8.97;;
19535;SDS011;9913;51.168;4.124;2024-01-30T09:40:41;12.93;;;8.47;;
19535;SDS011;9913;51.168;4.124;2024-01-30T09:43:10;15.07;;;9.13;;
19535;SDS011;9913;51.168;4.124;2024-01-30T09:45:43;14.80;;;10.23;;
19535;SDS011;9913;51.168;4.124;2024-01-30T09:48:13;15.50;;;8.83;;
19535;SDS011;9913;51.168;4.124;2024-01-30T09:50:42;14.33;;;8.40;;
19535;SDS011;9913;51.168;4.124;2024-01-30T09:53:13;13.93;;;9.23;;
19535;SDS011;9913;51.168;4.124;2024-01-30T09:55:42;11.20;;;7.87;;
19535;SDS011;9913;51.168;4.124;2024-01-30T09:58:11;14.50;;;7.93;;
19535;SDS011;9913;51.168;4.124;2024-01-30T10:00:40;14.57;;;8.13;;
19535;SDS011;9913;51.168;4.124;2024-01-30T10:03:09;13.37;;;7.67;;
19535;SDS011;9913;51.168;4.124;2024-01-30T10:05:38;16.53;;;8.63;;
19535;SDS011;9913;51.168;4.124;2024-01-30T10:08:09;10.17;;;7.37;;
19535;SDS011;9913;51.168;4.124;2024-01-30T10:10:38;14.00;;;7.30;;
19535;SDS011;9913;51.168;4.124;2024-01-30T10:13:07;11.07;;;6.17;;
19535;SDS011;9913;51.168;4.124;2024-01-30T10:15:35;9.80;;;5.83;;
19535;SDS011;9913;51.168;4.124;2024-01-30T10:18:05;9.47;;;5.10;;
19535;SDS011;9913;51.168;4.124;2024-01-30T10:20:34;8.97;;;4.97;;
19535;SDS011;9913;51.168;4.124;2024-01-30T10:23:03;8.20;;;4.40;;
19535;SDS011;9913;51.168;4.124;2024-01-30T10:25:33;9.90;;;4.00;;
19535;SDS011;9913;51.168;4.124;2024-01-30T10:28:01;4.73;;;3.40;;
19535;SDS011;9913;51.168;4.124;2024-01-30T10:30:30;7.40;;;3.17;;
19535;SDS011;9913;51.168;4.124;2024-01-30T10:32:58;7.63;;;3.07;;
19535;SDS011;9913;51.168;4.124;2024-01-30T10:35:27;5.87;;;2.93;;
19535;SDS011;9913;51.168;4.124;2024-01-30T10:37:55;5.93;;;3.00;;
19535;SDS011;9913;51.168;4.124;2024-01-30T10:40:26;7.17;;;3.10;;
19535;SDS011;9913;51.168;4.124;2024-01-30T10:42:57;5.27;;;2.53;;
19535;SDS011;9913;51.168;4.124;2024-01-30T10:45:31;6.33;;;2.50;;
19535;SDS011;9913;51.168;4.124;2024-01-30T10:47:59;3.57;;;1.90;;
19535;SDS011;9913;51.168;4.124;2024-01-30T10:50:30;3.30;;;1.23;;
19535;SDS011;9913;51.168;4.124;2024-01-30T10:52:59;4.20;;;1.40;;
19535;SDS011;9913;51.168;4.124;2024-01-30T10:55:29;4.37;;;1.30;;
19535;SDS011;9913;51.168;4.124;2024-01-30T10:58:00;2.43;;;1.17;;
19535;SDS011;9913;51.168;4.124;2024-01-30T11:00:28;3.77;;;1.13;;
19535;SDS011;9913;51.168;4.124;2024-01-30T11:02:59;2.40;;;0.87;;
19535;SDS011;9913;51.168;4.124;2024-01-30T11:05:28;2.53;;;0.90;;
19535;SDS011;9913;51.168;4.124;2024-01-30T11:08:09;4.27;;;1.03;;
19535;SDS011;9913;51.168;4.124;2024-01-30T11:10:45;4.23;;;1.30;;
19535;SDS011;9913;51.168;4.124;2024-01-30T11:13:15;3.03;;;1.17;;
19535;SDS011;9913;51.168;4.124;2024-01-30T11:15:47;3.40;;;1.30;;
19535;SDS011;9913;51.168;4.124;2024-01-30T11:18:22;6.03;;;1.40;;
19535;SDS011;9913;51.168;4.124;2024-01-30T11:20:52;3.73;;;1.73;;
19535;SDS011;9913;51.168;4.124;2024-01-30T11:23:21;3.17;;;1.30;;
19535;SDS011;9913;51.168;4.124;2024-01-30T11:25:51;3.13;;;1.47;;
19535;SDS011;9913;51.168;4.124;2024-01-30T11:28:22;4.83;;;1.43;;
19535;SDS011;9913;51.168;4.124;2024-01-30T11:30:50;5.63;;;1.73;;
19535;SDS011;9913;51.168;4.124;2024-01-30T11:33:27;3.37;;;1.40;;
19535;SDS011;9913;51.168;4.124;2024-01-30T11:36:00;3.40;;;1.33;;
19535;SDS011;9913;51.168;4.124;2024-01-30T11:38:29;5.93;;;1.63;;
19535;SDS011;9913;51.168;4.124;2024-01-30T11:40:57;5.73;;;1.63;;
19535;SDS011;9913;51.168;4.124;2024-01-30T11:43:28;3.63;;;1.60;;
19535;SDS011;9913;51.168;4.124;2024-01-30T11:45:56;3.77;;;1.43;;
19535;SDS011;9913;51.168;4.124;2024-01-30T11:48:25;3.97;;;1.60;;
19535;SDS011;9913;51.168;4.124;2024-01-30T11:50:54;3.90;;;1.50;;
19535;SDS011;9913;51.168;4.124;2024-01-30T11:53:22;4.07;;;1.40;;
19535;SDS011;9913;51.168;4.124;2024-01-30T11:55:51;2.07;;;1.00;;
19535;SDS011;9913;51.168;4.124;2024-01-30T11:58:19;3.97;;;1.30;;
19535;SDS011;9913;51.168;4.124;2024-01-30T12:00:54;5.37;;;1.30;;
19535;SDS011;9913;51.168;4.124;2024-01-30T12:03:23;5.03;;;1.57;;
19535;SDS011;9913;51.168;4.124;2024-01-30T12:05:55;4.13;;;1.30;;
19535;SDS011;9913;51.168;4.124;2024-01-30T12:08:26;4.27;;;1.50;;
19535;SDS011;9913;51.168;4.124;2024-01-30T12:10:55;3.10;;;1.43;;
19535;SDS011;9913;51.168;4.124;2024-01-30T12:13:25;2.83;;;1.17;;
19535;SDS011;9913;51.168;4.124;2024-01-30T12:16:00;2.23;;;1.43;;
19535;SDS011;9913;51.168;4.124;2024-01-30T12:18:29;4.33;;;1.80;;
19535;SDS011;9913;51.168;4.124;2024-01-30T12:20:57;6.03;;;1.30;;
19535;SDS011;9913;51.168;4.124;2024-01-30T12:23:27;3.13;;;1.50;;
19535;SDS011;9913;51.168;4.124;2024-01-30T12:25:56;4.37;;;1.50;;
19535;SDS011;9913;51.168;4.124;2024-01-30T12:28:25;4.23;;;1.60;;
19535;SDS011;9913;51.168;4.124;2024-01-30T12:30:55;4.07;;;1.50;;
19535;SDS011;9913;51.168;4.124;2024-01-30T12:33:26;4.40;;;1.50;;
19535;SDS011;9913;51.168;4.124;2024-01-30T12:35:55;4.33;;;1.30;;
19535;SDS011;9913;51.168;4.124;2024-01-30T12:38:29;3.80;;;1.53;;
19535;SDS011;9913;51.168;4.124;2024-01-30T12:40:57;5.97;;;1.67;;
19535;SDS011;9913;51.168;4.124;2024-01-30T12:43:26;3.87;;;1.60;;
19535;SDS011;9913;51.168;4.124;2024-01-30T12:46:04;5.27;;;1.60;;
19535;SDS011;9913;51.168;4.124;2024-01-30T12:48:35;3.07;;;1.13;;
19535;SDS011;9913;51.168;4.124;2024-01-30T12:51:03;3.40;;;1.20;;
19535;SDS011;9913;51.168;4.124;2024-01-30T12:53:32;4.47;;;1.40;;
19535;SDS011;9913;51.168;4.124;2024-01-30T12:56:00;3.43;;;1.20;;
19535;SDS011;9913;51.168;4.124;2024-01-30T12:58:29;7.20;;;1.27;;
19535;SDS011;9913;51.168;4.124;2024-01-30T13:00:57;4.93;;;1.47;;
19535;SDS011;9913;51.168;4.124;2024-01-30T13:03:26;4.73;;;1.27;;
19535;SDS011;9913;51.168;4.124;2024-01-30T13:05:56;5.00;;;1.37;;
19535;SDS011;9913;51.168;4.124;2024-01-30T13:08:25;3.77;;;1.43;;
19535;SDS011;9913;51.168;4.124;2024-01-30T13:10:53;1.87;;;1.10;;
19535;SDS011;9913;51.168;4.124;2024-01-30T13:13:21;4.73;;;1.30;;
19535;SDS011;9913;51.168;4.124;2024-01-30T13:15:50;4.60;;;1.23;;
19535;SDS011;9913;51.168;4.124;2024-01-30T13:18:18;3.20;;;1.73;;
19535;SDS011;9913;51.168;4.124;2024-01-30T13:20:47;4.63;;;1.10;;
19535;SDS011;9913;51.168;4.124;2024-01-30T13:23:17;5.80;;;1.47;;
19535;SDS011;9913;51.168;4.124;2024-01-30T13:25:45;5.47;;;1.50;;
19535;SDS011;9913;51.168;4.124;2024-01-30T13:28:14;5.17;;;1.37;;
19535;SDS011;9913;51.168;4.124;2024-01-30T13:30:42;4.40;;;1.30;;
19535;SDS011;9913;51.168;4.124;2024-01-30T13:33:10;3.57;;;1.30;;
19535;SDS011;9913;51.168;4.124;2024-01-30T13:35:39;3.80;;;1.27;;
19535;SDS011;9913;51.168;4.124;2024-01-30T13:38:07;3.90;;;1.30;;
19535;SDS011;9913;51.168;4.124;2024-01-30T13:40:37;4.63;;;1.67;;
19535;SDS011;9913;51.168;4.124;2024-01-30T13:43:05;5.40;;;1.20;;
19535;SDS011;9913;51.168;4.124;2024-01-30T13:45:34;9.23;;;1.40;;
19535;SDS011;9913;51.168;4.124;2024-01-30T13:48:02;3.87;;;1.33;;
19535;SDS011;9913;51.168;4.124;2024-01-30T13:50:31;3.53;;;1.10;;
19535;SDS011;9913;51.168;4.124;2024-01-30T13:53:01;2.83;;;1.20;;
19535;SDS011;9913;51.168;4.124;2024-01-30T13:55:31;5.70;;;1.67;;
19535;SDS011;9913;51.168;4.124;2024-01-30T13:58:00;2.93;;;1.13;;
19535;SDS011;9913;51.168;4.124;2024-01-30T14:00:29;9.17;;;1.63;;
19535;SDS011;9913;51.168;4.124;2024-01-30T14:02:58;5.87;;;1.80;;
19535;SDS011;9913;51.168;4.124;2024-01-30T14:05:26;3.33;;;1.60;;
19535;SDS011;9913;51.168;4.124;2024-01-30T14:07:55;3.23;;;1.13;;
19535;SDS011;9913;51.168;4.124;2024-01-30T14:10:25;5.43;;;1.63;;
19535;SDS011;9913;51.168;4.124;2024-01-30T14:12:53;3.30;;;1.30;;
19535;SDS011;9913;51.168;4.124;2024-01-30T14:15:24;4.40;;;1.20;;
19535;SDS011;9913;51.168;4.124;2024-01-30T14:17:55;4.03;;;1.30;;
19535;SDS011;9913;51.168;4.124;2024-01-30T14:20:25;3.80;;;1.37;;
19535;SDS011;9913;51.168;4.124;2024-01-30T14:22:54;3.73;;;1.90;;
19535;SDS011;9913;51.168;4.124;2024-01-30T14:25:23;5.10;;;1.40;;
19535;SDS011;9913;51.168;4.124;2024-01-30T14:27:52;4.20;;;1.47;;
19535;SDS011;9913;51.168;4.124;2024-01-30T14:30:21;4.73;;;2.00;;
19535;SDS011;9913;51.168;4.124;2024-01-30T14:32:50;5.30;;;1.83;;
19535;SDS011;9913;51.168;4.124;2024-01-30T14:35:19;5.20;;;2.03;;
19535;SDS011;9913;51.168;4.124;2024-01-30T14:37:48;5.40;;;1.97;;
19535;SDS011;9913;51.168;4.124;2024-01-30T14:40:17;6.20;;;2.00;;
19535;SDS011;9913;51.168;4.124;2024-01-30T14:42:45;5.13;;;1.53;;
19535;SDS011;9913;51.168;4.124;2024-01-30T14:45:14;5.63;;;1.90;;
19535;SDS011;9913;51.168;4.124;2024-01-30T14:47:44;4.80;;;1.80;;
19535;SDS011;9913;51.168;4.124;2024-01-30T14:50:14;5.63;;;2.40;;
19535;SDS011;9913;51.168;4.124;2024-01-30T14:52:44;3.73;;;2.30;;
19535;SDS011;9913;51.168;4.124;2024-01-30T14:55:12;5.63;;;2.23;;
19535;SDS011;9913;51.168;4.124;2024-01-30T14:57:41;5.37;;;2.50;;
19535;SDS011;9913;51.168;4.124;2024-01-30T15:00:12;5.67;;;2.90;;
19535;SDS011;9913;51.168;4.124;2024-01-30T15:02:43;5.80;;;2.83;;
19535;SDS011;9913;51.168;4.124;2024-01-30T15:05:15;7.43;;;3.20;;